Weather History for Boonville, MO

Change the Weather History Date:

Monday, April 1, 2013

  Actual Average Record
Temperature  
Mean Temperature 40 °F -  
Max Temperature 78 °F 60 °F 98 °F (2014)
Min Temperature 35 °F 39 °F 26 °F (1987)
Degree Days  
Heating Degree Days 24    
Moisture  
Dew Point 23 °F    
Average Humidity 51    
Maximum Humidity 78    
Minimum Humidity 31    
Precipitation  
Precipitation 0.00 in - - ()
Sea Level Pressure  
Sea Level Pressure 30.19 in    
Wind  
Wind Speed 9 mph (NNW)    
Max Wind Speed 17 mph    
Max Gust Speed 22 mph    
Visibility 10 miles    
Events Rain , Thunderstorm    
Averages and records for this station are not official NWS values.
T = Trace of Precipitation, MM = Missing Value Source: NWS Daily Summary

Daily Weather History Graph

Daily Weather History Graph

Search for Another Location

Airport:

Trip Planner

Search our weather history database for the weather conditions in past years. The results will help you decide how hot, cold, wet, or windy it might be!

Date:

Astronomy

Apr. 01, 2013 Rise Set
Actual Time 6:54 AM CDT 7:34 PM CDT
Civil Twilight 6:28 AM CDT 8:01 PM CDT
Nautical Twilight 5:56 AM CDT 8:33 PM CDT
Astronomical Twilight 5:23 AM CDT 9:06 PM CDT
Moon 12:41 AM CDT 10:44 AM CDT
Length of Visible Light 13h 33m
Length of Day
12h 39m
Waning Gibbous, 67% of the Moon is Illuminated
Apr 1
Waning Gibbous
Apr 2
Last Quarter
Apr 10
New
Apr 18
First Quarter
Apr 25
Full

Hourly Weather History & Observations

Time (CDT) Temp. Windchill Dew Point Humidity Pressure Visibility Wind Dir Wind Speed Gust Speed Precip Events Conditions
12:15 AM 46.0 °F 41.4 °F 28.9 °F 51% 29.98 in 10.0 mi North 9.2 mph - N/A   Clear
12:35 AM 46.4 °F 41.1 °F 30.0 °F 53% 29.99 in 10.0 mi North 11.5 mph - N/A   Mostly Cloudy
12:55 AM 46.4 °F - 30.4 °F 54% 30.00 in 10.0 mi Calm Calm - N/A   Overcast
1:15 AM 45.9 °F 41.2 °F 30.9 °F 56% 30.02 in 10.0 mi North 9.2 mph - N/A   Overcast
1:35 AM 45.3 °F 38.7 °F 30.9 °F 57% 30.02 in 10.0 mi NNE 15.0 mph 20.7 mph N/A   Overcast
1:55 AM 44.4 °F 37.9 °F 30.2 °F 57% 30.03 in 10.0 mi NNE 13.8 mph 21.9 mph N/A   Overcast
2:15 AM 43.7 °F 38.1 °F 29.8 °F 58% 30.05 in 10.0 mi NNE 10.4 mph - N/A   Overcast
2:35 AM 43.0 °F 38.2 °F 30.2 °F 61% 30.05 in 10.0 mi North 8.1 mph - N/A   Overcast
3:15 AM 42.4 °F 37.0 °F 30.7 °F 63% 30.07 in 10.0 mi North 9.2 mph - N/A   Overcast
3:35 AM 42.1 °F 36.1 °F 31.1 °F 65% 30.08 in 10.0 mi North 10.4 mph - N/A   Mostly Cloudy
3:55 AM 41.7 °F 33.4 °F 32.2 °F 69% 30.08 in 10.0 mi North 17.3 mph 21.9 mph N/A Rain Light Rain
4:15 AM 41.0 °F 34.3 °F 32.4 °F 71% 30.08 in 10.0 mi North 11.5 mph 18.4 mph N/A   Overcast
4:35 AM 40.5 °F 34.6 °F 32.2 °F 72% 30.11 in 10.0 mi NNW 9.2 mph 17.3 mph N/A   Overcast
4:55 AM 40.1 °F 34.7 °F 32.0 °F 73% 30.10 in 10.0 mi North 8.1 mph - N/A   Overcast
5:15 AM 39.6 °F - 32.0 °F 74% 30.11 in 10.0 mi Calm Calm - N/A   Overcast
5:35 AM 39.4 °F 32.7 °F 31.8 °F 74% 30.12 in 10.0 mi North 10.4 mph 19.6 mph N/A   Overcast
5:55 AM 39.2 °F 31.2 °F 31.6 °F 74% 30.13 in 10.0 mi North 13.8 mph 17.3 mph N/A   Overcast
6:15 AM 38.5 °F 34.1 °F 30.9 °F 74% 30.14 in 10.0 mi North 5.8 mph 16.1 mph N/A   Overcast
6:35 AM 37.6 °F 29.6 °F 30.6 °F 76% 30.16 in 10.0 mi North 12.7 mph 17.3 mph N/A   Overcast
6:55 AM 37.2 °F 29.1 °F 30.4 °F 76% 30.16 in 10.0 mi North 12.7 mph - N/A   Overcast
7:15 AM 36.3 °F 28.4 °F 30.2 °F 78% 30.18 in 10.0 mi NNW 11.5 mph - N/A   Overcast
7:35 AM 36.0 °F 28.5 °F 29.1 °F 76% 30.19 in 10.0 mi North 10.4 mph - N/A   Overcast
7:55 AM 35.6 °F 29.2 °F 26.4 °F 69% 30.21 in 10.0 mi North 8.1 mph - N/A   Overcast
8:15 AM 35.8 °F 29.4 °F 26.2 °F 68% 30.22 in 10.0 mi NNW 8.1 mph - N/A   Overcast
8:35 AM 36.0 °F 28.5 °F 25.2 °F 65% 30.22 in 10.0 mi North 10.4 mph - N/A   Overcast
8:55 AM 36.3 °F 29.5 °F 23.7 °F 60% 30.23 in 10.0 mi North 9.2 mph - N/A   Overcast
9:15 AM 37.6 °F 31.6 °F 25.0 °F 60% 30.23 in 10.0 mi NNW 8.1 mph - N/A   Mostly Cloudy
9:35 AM 37.6 °F 31.6 °F 24.4 °F 59% 30.24 in 10.0 mi NNW 8.1 mph - N/A   Mostly Cloudy
9:55 AM 37.9 °F 32.1 °F 24.3 °F 58% 30.24 in 10.0 mi NNW 8.1 mph - N/A   Mostly Cloudy
10:15 AM 37.8 °F 31.3 °F 23.4 °F 56% 30.24 in 10.0 mi North 9.2 mph - N/A   Overcast
10:35 AM 38.8 °F 32.6 °F 22.8 °F 53% 30.25 in 10.0 mi North 9.2 mph 16.1 mph N/A   Scattered Clouds
10:55 AM 39.4 °F 32.7 °F 21.7 °F 49% 30.24 in 10.0 mi North 10.4 mph - N/A   Mostly Cloudy
11:15 AM 39.7 °F 34.3 °F 19.0 °F 43% 30.25 in 10.0 mi NW 8.1 mph - N/A Thunderstorm Scattered Clouds
11:35 AM 40.5 °F 35.8 °F 19.0 °F 42% 30.25 in 10.0 mi North 6.9 mph - N/A   Scattered Clouds
11:55 AM 41.5 °F 35.9 °F 21.9 °F 46% 30.25 in 10.0 mi NNE 9.2 mph - N/A   Clear
12:15 PM 42.1 °F 39.2 °F 20.7 °F 42% 30.25 in 10.0 mi North 4.6 mph - N/A   Clear
12:35 PM 43.0 °F 36.8 °F 20.1 °F 40% 30.25 in 10.0 mi NW 11.5 mph 17.3 mph N/A   Clear
12:55 PM 43.0 °F 37.2 °F 17.8 °F 36% 30.25 in 10.0 mi NNW 10.4 mph 17.3 mph N/A   Clear
1:15 PM 43.5 °F 37.9 °F 16.5 °F 34% 30.24 in 10.0 mi NW 10.4 mph 17.3 mph N/A   Clear
1:35 PM 44.1 °F 39.5 °F 16.3 °F 33% 30.24 in 10.0 mi North 8.1 mph - N/A   Clear
1:55 PM 44.6 °F 39.7 °F 15.4 °F 31% 30.24 in 10.0 mi NNW 9.2 mph - N/A   Clear
2:15 PM 44.8 °F 40.4 °F 18.9 °F 36% 30.24 in 10.0 mi NW 8.1 mph - N/A   Clear
2:35 PM 45.1 °F 40.3 °F 18.9 °F 35% 30.24 in 10.0 mi NNW 9.2 mph - N/A   Clear
2:55 PM 45.1 °F 40.8 °F 18.0 °F 34% 30.24 in 10.0 mi NNW 8.1 mph 18.4 mph N/A   Clear
3:15 PM 45.3 °F 40.1 °F 16.5 °F 32% 30.24 in 10.0 mi North 10.4 mph 16.1 mph N/A   Clear
3:35 PM 46.2 °F 41.7 °F 17.1 °F 31% 30.23 in 10.0 mi NW 9.2 mph 18.4 mph N/A   Clear
3:55 PM 46.4 °F 41.1 °F 18.3 °F 33% 30.23 in 10.0 mi NNW 11.5 mph - N/A   Clear
4:15 PM 46.0 °F 41.9 °F 17.6 °F 32% 30.23 in 10.0 mi NNW 8.1 mph 16.1 mph N/A   Clear
4:35 PM 44.8 °F 40.4 °F 18.0 °F 34% 30.23 in 10.0 mi NW 8.1 mph - N/A   Clear
4:55 PM 45.1 °F 40.8 °F 17.8 °F 34% 30.22 in 10.0 mi NW 8.1 mph - N/A   Clear
5:15 PM 46.0 °F 41.4 °F 17.8 °F 32% 30.22 in 10.0 mi NNW 9.2 mph - N/A   Clear
5:35 PM 45.9 °F 40.4 °F 17.6 °F 32% 30.22 in 10.0 mi NW 11.5 mph - N/A   Clear
5:55 PM 45.7 °F 41.0 °F 18.0 °F 33% 30.21 in 10.0 mi NW 9.2 mph - N/A   Clear
6:15 PM 45.0 °F 41.8 °F 17.1 °F 33% 30.21 in 10.0 mi NNW 5.8 mph - N/A   Clear
6:35 PM 44.6 °F 41.4 °F 17.8 °F 34% 30.21 in 10.0 mi NW 5.8 mph - N/A   Clear
6:55 PM 44.1 °F 39.5 °F 18.1 °F 35% 30.21 in 10.0 mi NW 8.1 mph - N/A   Clear
7:15 PM 43.0 °F 39.5 °F 18.1 °F 37% 30.21 in 10.0 mi NNW 5.8 mph - N/A   Clear
7:35 PM 41.7 °F 38.0 °F 19.0 °F 40% 30.22 in 10.0 mi NNW 5.8 mph - N/A   Clear
7:55 PM 40.6 °F 37.5 °F 19.6 °F 43% 30.22 in 10.0 mi NNW 4.6 mph - N/A   Clear
8:15 PM 39.9 °F 36.7 °F 20.1 °F 45% 30.21 in 10.0 mi NNW 4.6 mph - N/A   Clear
8:35 PM 39.4 °F - 20.7 °F 47% 30.21 in 10.0 mi Calm Calm - N/A   Clear
8:55 PM 39.2 °F - 20.1 °F 46% 30.22 in 10.0 mi Calm Calm - N/A   Clear
9:15 PM 38.3 °F - 20.5 °F 49% 30.22 in 10.0 mi Calm Calm - N/A   Clear
9:35 PM 37.8 °F - 20.1 °F 49% 30.23 in 10.0 mi Calm Calm - N/A   Clear
9:55 PM 37.4 °F - 20.5 °F 51% 30.24 in 10.0 mi Calm Calm - N/A   Clear
10:15 PM 37.0 °F 34.5 °F 21.0 °F 52% 30.25 in 10.0 mi NW 3.5 mph - N/A   Clear
10:35 PM 36.5 °F 33.9 °F 21.4 °F 54% 30.26 in 10.0 mi NW 3.5 mph - N/A   Clear
10:55 PM 36.7 °F 34.1 °F 21.0 °F 53% 30.26 in 10.0 mi NW 3.5 mph - N/A   Clear
11:15 PM 36.5 °F - 21.2 °F 54% 30.27 in 10.0 mi Calm Calm - N/A   Clear
11:35 PM 35.8 °F - 21.4 °F 56% 30.27 in 10.0 mi Calm Calm - N/A   Clear
11:55 PM 35.2 °F - 21.9 °F 58% 30.27 in 10.0 mi Calm Calm - N/A   Clear